PolandFixed distance
Supermaraton Gor Stolowych
24 Jun2023
Distance
55km
Finishers
300248 men52 women
Winning time
5:16:14h
Median pace
6.43km/h
Pace distribution
300 finishers · 5.03–10.44 km/h · mean 6.55
Every finisher ran the same 55 km course, so these paces are directly comparable.
Histogram of finisher pace. 300 finishers ranged from 5.03 to 10.44 kilometres per hour, with a mean of 6.55 and a median of 6.43. The busiest band is 6.0 to 6.5 kilometres per hour, with 65 finishers.
Results
Ranks 1–50 of 300
| Rank | Runner | Time | Pace | Cat. | Placing |
|---|---|---|---|---|---|
| 1 | KB Wikon Nowa SÓL | 5:16:14h | 10.44 | M23 | 1st M · 1st M23 |
| 2 | *Sulejówek | 5:22:51h | 10.22 | M23 | 2nd M · 2nd M23 |
| 3 | Pressglass - Biegami I... | 5:22:56h | 10.22 | M23 | 3rd M · 3rd M23 |
| 4 | Rock&Run.PL | 5:31:15h | 9.96 | M35 | 4th M · 1st M35 |
| 5 | BPM Team Kudowianka Run | 6:06:17h | 9.01 | M40 | 5th M · 1st M40 |
| 6 | AW - Szybciej - Team | 6:06:34h | 9.00 | M35 | 6th M · 2nd M35 |
| 7 | Salming CZ | 6:07:51h | 8.97 | W23 | 1st F · 1st W23 |
| 8 | Zadyszka Oświęcim | 6:08:11h | 8.96 | M23 | 7th M · 4th M23 |
| 9 | Zadyszka Oświęcim / KS... | 6:10:50h | 8.90 | M45 | 8th M · 1st M45 |
| 10 | KS Janusze | 6:16:18h | 8.77 | M35 | 9th M · 3rd M35 |
| 11 | Kudowianka Run | 6:17:35h | 8.74 | M23 | 10th M · 5th M23 |
| 12 | Run Kanice | 6:19:24h | 8.70 | M35 | 11th M · 4th M35 |
| 13 | Bonnie & Clyde | 6:21:45h | 8.64 | M40 | 12th M · 2nd M40 |
| 14 | *Poznań | 6:29:34h | 8.47 | M23 | 13th M · 6th M23 |
| 15 | Grupa Biegowa BEZ Granic | 6:30:01h | 8.46 | M40 | 14th M · 3rd M40 |
| 16 | Aktywna Nowa Ruda | 6:31:25h | 8.43 | M45 | 15th M · 2nd M45 |
| 17 | *Kozy | 6:35:35h | 8.34 | W23 | 2nd F · 2nd W23 |
| 18 | Zadyszka Oświęcim | 6:35:59h | 8.33 | M40 | 16th M · 4th M40 |
| 19 | Bonnie & Clyde | 6:36:37h | 8.32 | W40 | 3rd F · 1st W40 |
| 20 | Ultrastach | 6:38:53h | 8.27 | M35 | 17th M · 5th M35 |
| 21 | *Iwiny | 6:39:22h | 8.26 | M50 | 18th M · 1st M50 |
| 22 | AZS AWF Kraków Masters | 6:48:23h | 8.08 | M35 | 19th M · 6th M35 |
| 23 | *Dębno | 6:52:08h | 8.01 | M23 | 20th M · 7th M23 |
| 24 | Socios Silesia | 6:52:48h | 7.99 | M23 | 21st M · 8th M23 |
| 25 | Piodzo Extreme | 6:54:57h | 7.95 | M23 | 22nd M · 9th M23 |
| 26 | Dogoń Grodzisk Mazowiecki | 6:56:47h | 7.92 | M40 | 23rd M · 5th M40 |
| 27 | Dogoń Grodzisk Mazowiecki | 6:57:15h | 7.91 | M35 | 24th M · 7th M35 |
| 28 | Trifamily.PL | 6:59:56h | 7.86 | M45 | 25th M · 3rd M45 |
| 29 | Ultra Spam Żary | 6:59:57h | 7.86 | M40 | 26th M · 6th M40 |
| 30 | KB Szamotuły | 7:06:53h | 7.73 | M40 | 27th M · 7th M40 |
| 31 | Ultra Diabły Team Lubrza | 7:06:54h | 7.73 | M35 | 28th M · 8th M35 |
| 32 | Stajniak Team | 7:06:59h | 7.73 | M23 | 29th M · 10th M23 |
| 33 | #Yoloteamkrk | 7:07:11h | 7.72 | W23 | 4th F · 3rd W23 |
| 34 | Pietrzykowice | 7:09:40h | 7.68 | M45 | 30th M · 4th M45 |
| 35 | *Nieporęt | 7:12:21h | 7.63 | M35 | 31st M · 9th M35 |
| 36 | Jagodowo-Kalinowy Team | 7:16:36h | 7.56 | W35 | 5th F · 1st W35 |
| 37 | *Lusówko | 7:16:37h | 7.56 | M45 | 32nd M · 5th M45 |
| 38 | *Siedlce | 7:17:27h | 7.54 | M23 | 33rd M · 11th M23 |
| 39 | *Józefów | 7:17:28h | 7.54 | M23 | 34th M · 12th M23 |
| 40 | *Rzeszów | 7:17:29h | 7.54 | M40 | 35th M · 8th M40 |
| 41 | Epic Ultra Team | 7:19:20h | 7.51 | M35 | 36th M · 10th M35 |
| 42 | *Grodzisk Maz | 7:19:35h | 7.51 | M50 | 37th M · 2nd M50 |
| 43 | Wkurw_Team | 7:22:41h | 7.46 | M40 | 38th M · 9th M40 |
| 44 | KB Wikon Nowa SÓL | 7:22:47h | 7.45 | M35 | 39th M · 11th M35 |
| 45 | Pozruniacy | 7:22:56h | 7.45 | M45 | 40th M · 6th M45 |
| 46 | Pocomitobyło | 7:24:06h | 7.43 | M35 | 41st M · 12th M35 |
| 47 | *Lubin | 7:24:48h | 7.42 | M45 | 42nd M · 7th M45 |
| 48 | *Opolno Zdrój | 7:25:02h | 7.42 | M45 | 43rd M · 8th M45 |
| 49 | PAN Kopyto | 7:25:03h | 7.42 | M23 | 44th M · 13th M23 |
| 50 | S.C.Rep Arvato | 7:25:03h | 7.42 | M45 | 44th M · 9th M45 |
- 1KB Wikon Nowa SÓL1st M · 1st M23Time5:16:14hPace10.44Cat.M23
- 2*Sulejówek2nd M · 2nd M23Time5:22:51hPace10.22Cat.M23
- 3Pressglass - Biegami I...3rd M · 3rd M23Time5:22:56hPace10.22Cat.M23
- 4Rock&Run.PL4th M · 1st M35Time5:31:15hPace9.96Cat.M35
- 5BPM Team Kudowianka Run5th M · 1st M40Time6:06:17hPace9.01Cat.M40
- 6AW - Szybciej - Team6th M · 2nd M35Time6:06:34hPace9.00Cat.M35
- 7Salming CZ1st F · 1st W23Time6:07:51hPace8.97Cat.W23
- 8Zadyszka Oświęcim7th M · 4th M23Time6:08:11hPace8.96Cat.M23
- 9Zadyszka Oświęcim / KS...8th M · 1st M45Time6:10:50hPace8.90Cat.M45
- 10KS Janusze9th M · 3rd M35Time6:16:18hPace8.77Cat.M35
- 11Kudowianka Run10th M · 5th M23Time6:17:35hPace8.74Cat.M23
- 12Run Kanice11th M · 4th M35Time6:19:24hPace8.70Cat.M35
- 13Bonnie & Clyde12th M · 2nd M40Time6:21:45hPace8.64Cat.M40
- 14*Poznań13th M · 6th M23Time6:29:34hPace8.47Cat.M23
- 15Grupa Biegowa BEZ Granic14th M · 3rd M40Time6:30:01hPace8.46Cat.M40
- 16Aktywna Nowa Ruda15th M · 2nd M45Time6:31:25hPace8.43Cat.M45
- 17*Kozy2nd F · 2nd W23Time6:35:35hPace8.34Cat.W23
- 18Zadyszka Oświęcim16th M · 4th M40Time6:35:59hPace8.33Cat.M40
- 19Bonnie & Clyde3rd F · 1st W40Time6:36:37hPace8.32Cat.W40
- 20Ultrastach17th M · 5th M35Time6:38:53hPace8.27Cat.M35
- 21*Iwiny18th M · 1st M50Time6:39:22hPace8.26Cat.M50
- 22AZS AWF Kraków Masters19th M · 6th M35Time6:48:23hPace8.08Cat.M35
- 23*Dębno20th M · 7th M23Time6:52:08hPace8.01Cat.M23
- 24Socios Silesia21st M · 8th M23Time6:52:48hPace7.99Cat.M23
- 25Piodzo Extreme22nd M · 9th M23Time6:54:57hPace7.95Cat.M23
- 26Dogoń Grodzisk Mazowiecki23rd M · 5th M40Time6:56:47hPace7.92Cat.M40
- 27Dogoń Grodzisk Mazowiecki24th M · 7th M35Time6:57:15hPace7.91Cat.M35
- 28Trifamily.PL25th M · 3rd M45Time6:59:56hPace7.86Cat.M45
- 29Ultra Spam Żary26th M · 6th M40Time6:59:57hPace7.86Cat.M40
- 30KB Szamotuły27th M · 7th M40Time7:06:53hPace7.73Cat.M40
- 31Ultra Diabły Team Lubrza28th M · 8th M35Time7:06:54hPace7.73Cat.M35
- 32Stajniak Team29th M · 10th M23Time7:06:59hPace7.73Cat.M23
- 33#Yoloteamkrk4th F · 3rd W23Time7:07:11hPace7.72Cat.W23
- 34Pietrzykowice30th M · 4th M45Time7:09:40hPace7.68Cat.M45
- 35*Nieporęt31st M · 9th M35Time7:12:21hPace7.63Cat.M35
- 36Jagodowo-Kalinowy Team5th F · 1st W35Time7:16:36hPace7.56Cat.W35
- 37*Lusówko32nd M · 5th M45Time7:16:37hPace7.56Cat.M45
- 38*Siedlce33rd M · 11th M23Time7:17:27hPace7.54Cat.M23
- 39*Józefów34th M · 12th M23Time7:17:28hPace7.54Cat.M23
- 40*Rzeszów35th M · 8th M40Time7:17:29hPace7.54Cat.M40
- 41Epic Ultra Team36th M · 10th M35Time7:19:20hPace7.51Cat.M35
- 42*Grodzisk Maz37th M · 2nd M50Time7:19:35hPace7.51Cat.M50
- 43Wkurw_Team38th M · 9th M40Time7:22:41hPace7.46Cat.M40
- 44KB Wikon Nowa SÓL39th M · 11th M35Time7:22:47hPace7.45Cat.M35
- 45Pozruniacy40th M · 6th M45Time7:22:56hPace7.45Cat.M45
- 46Pocomitobyło41st M · 12th M35Time7:24:06hPace7.43Cat.M35
- 47*Lubin42nd M · 7th M45Time7:24:48hPace7.42Cat.M45
- 48*Opolno Zdrój43rd M · 8th M45Time7:25:02hPace7.42Cat.M45
- 49PAN Kopyto44th M · 13th M23Time7:25:03hPace7.42Cat.M23
- 50S.C.Rep Arvato44th M · 9th M45Time7:25:03hPace7.42Cat.M45
Showing ranks 1–50 of 300